Huvudsida
METAR-TAF:

METAR-TAF

Flygplatser :

Sogndals flygplats. Haukåsen

Sogndals, Norge

latitud: 61-09N, longitud: 007-08E, höjd: 49 m

Aktuellt väderrapport

Denna rapport gjordes för 33 minuter sedan, klockan 07:20 UTC
Vind 3 kt från nordost, varierande mellan nord och ost
Temperatur -6°C
Fuktighet 86%
Tryck 999 hPa
Sikt 10 km eller mer
Brutna moln på en höjd av 1400 ft

METAR: ENSG 250720Z 04003KT 010V090 9999 BKN014 M06/M08 Q0999 RMK WIND 3806FT 05006KT

Tid: 08:53 (07:53 UTC)


TAF: saknas

Aktuella väderrapporter och prognoser från 4000 flygplatser (METAR- och TAF-rapporter).

De tillgängliga stationerna syns som gula och röda prickar på kartan.

För musen över prickarna för att se namnen på stationerna.

Klicka sedan för att få väderrapporter och prognoser.

För att ändra kartan: Klicka på de gröna knapparna med ett svart kors på för att zooma in; den gröna knappen med ett streck på för att zooma ut; eller på de gröna pilarna för angränsande kartor.


METAR-TAF: